createdAt,value
2019-01-26T00:01:49.369Z,42.23
2019-01-26T00:04:52.002Z,41.70
2019-01-26T00:07:53.962Z,43.20
2019-01-26T00:10:56.641Z,44.73
2019-01-26T00:13:58.596Z,44.37
2019-01-26T00:17:00.625Z,41.13
2019-01-26T00:20:03.684Z,41.93
2019-01-26T00:23:07.282Z,43.70
2019-01-26T00:26:09.215Z,43.30
2019-01-26T00:29:11.230Z,42.73
2019-01-26T00:32:13.258Z,44.23
2019-01-26T00:35:15.385Z,42.40
2019-01-26T00:38:17.314Z,43.37
2019-01-26T00:41:19.361Z,43.77
2019-01-26T00:44:21.404Z,41.30
2019-01-26T00:47:23.393Z,42.60
2019-01-26T00:50:25.369Z,43.30
2019-01-26T00:53:27.852Z,39.70
2019-01-26T00:56:29.789Z,38.30
2019-01-26T00:59:31.787Z,39.50
2019-01-26T01:02:33.765Z,36.20
2019-01-26T01:05:35.725Z,40.77
2019-01-26T01:08:37.623Z,35.87
2019-01-26T01:11:40.604Z,35.43
2019-01-26T01:14:42.560Z,33.97
2019-01-26T01:17:45.080Z,35.57
2019-01-26T01:20:47.013Z,33.53
2019-01-26T01:23:49.276Z,35.87
2019-01-26T01:26:51.219Z,37.40
2019-01-26T01:29:53.193Z,35.70
2019-01-26T01:32:55.149Z,35.07
2019-01-26T01:35:57.149Z,38.20
2019-01-26T01:38:59.079Z,38.70
2019-01-26T01:42:01.045Z,38.30
2019-01-26T01:45:05.975Z,38.90
2019-01-26T01:48:08.026Z,45.13
2019-01-26T01:51:10.040Z,45.00
2019-01-26T01:54:12.201Z,46.83
2019-01-26T01:57:14.141Z,47.63
2019-01-26T02:00:18.678Z,44.03
2019-01-26T02:03:20.635Z,49.17
2019-01-26T02:06:22.616Z,53.63
2019-01-26T02:09:24.541Z,46.93
2019-01-26T02:12:26.547Z,49.63
2019-01-26T02:15:28.463Z,52.47
2019-01-26T02:18:30.606Z,49.67
2019-01-26T02:21:32.600Z,49.70
2019-01-26T02:24:34.762Z,48.93
2019-01-26T02:27:36.680Z,51.97
2019-01-26T02:30:38.692Z,46.63
2019-01-26T02:33:40.629Z,51.67
2019-01-26T02:36:42.674Z,47.20
2019-01-26T02:39:44.684Z,48.10
2019-01-26T02:42:46.753Z,47.20
2019-01-26T02:45:48.709Z,44.33
2019-01-26T02:48:50.713Z,43.77
2019-01-26T02:51:52.631Z,46.73
2019-01-26T02:54:54.687Z,44.83
2019-01-26T02:57:56.629Z,44.77
2019-01-26T03:00:58.682Z,46.17
2019-01-26T03:04:01.039Z,47.63
2019-01-26T03:07:03.400Z,43.07
2019-01-26T03:10:09.008Z,43.17
2019-01-26T03:13:11.182Z,41.47
2019-01-26T03:16:13.160Z,44.30
2019-01-26T03:19:15.598Z,40.63
2019-01-26T03:22:17.589Z,39.70
2019-01-26T03:25:19.664Z,40.33
2019-01-26T03:28:21.779Z,39.20
2019-01-26T03:31:23.803Z,37.20
2019-01-26T03:34:25.777Z,37.00
2019-01-26T03:37:27.774Z,37.10
2019-01-26T03:40:29.767Z,34.87
2019-01-26T03:43:31.707Z,35.37
2019-01-26T03:46:33.659Z,33.10
2019-01-26T03:49:35.674Z,32.13
2019-01-26T03:52:37.667Z,32.93
2019-01-26T03:55:39.669Z,30.00
2019-01-26T03:58:41.778Z,28.93
2019-01-26T04:01:44.076Z,31.73
2019-01-26T04:04:45.991Z,31.87
2019-01-26T04:07:48.127Z,29.23
2019-01-26T04:10:50.063Z,28.57
2019-01-26T04:13:52.968Z,28.53
2019-01-26T04:16:54.951Z,28.73
2019-01-26T04:19:57.001Z,26.47
2019-01-26T04:22:58.967Z,25.23
2019-01-26T04:26:01.008Z,27.83
2019-01-26T04:29:03.038Z,28.43
2019-01-26T04:32:05.101Z,29.27
2019-01-26T04:35:08.360Z,27.37
2019-01-26T04:38:10.371Z,28.63
2019-01-26T04:41:13.434Z,23.97
2019-01-26T04:44:15.431Z,28.23
2019-01-26T04:47:17.348Z,27.40
2019-01-26T04:50:20.275Z,24.93
2019-01-26T04:53:22.231Z,23.77
2019-01-26T04:56:24.268Z,26.27
2019-01-26T04:59:26.237Z,24.40
2019-01-26T05:02:28.317Z,22.80
2019-01-26T05:05:30.271Z,26.43
2019-01-26T05:08:32.284Z,24.40
2019-01-26T05:11:34.254Z,27.00
2019-01-26T05:14:36.453Z,24.50
2019-01-26T05:17:39.381Z,22.77
2019-01-26T05:20:42.080Z,21.90
2019-01-26T05:23:44.071Z,24.07
2019-01-26T05:26:46.191Z,22.00
2019-01-26T05:29:48.160Z,22.90
2019-01-26T05:32:50.261Z,22.13
2019-01-26T05:35:52.281Z,20.20
2019-01-26T05:38:54.304Z,21.80
2019-01-26T05:41:56.307Z,21.57
2019-01-26T05:44:58.307Z,21.17
2019-01-26T05:48:00.230Z,22.63
2019-01-26T05:51:02.288Z,21.00
2019-01-26T05:54:04.171Z,22.83
2019-01-26T05:57:06.160Z,23.90
2019-01-26T06:00:11.712Z,25.97
2019-01-26T06:03:13.735Z,24.07
2019-01-26T06:06:15.690Z,24.47
2019-01-26T06:09:17.684Z,24.00
2019-01-26T06:12:19.673Z,23.13
2019-01-26T06:15:21.872Z,22.20
2019-01-26T06:18:23.853Z,20.47
2019-01-26T06:21:25.853Z,21.37
2019-01-26T06:24:27.855Z,21.67
2019-01-26T06:27:29.998Z,21.90
2019-01-26T06:30:32.101Z,21.23
2019-01-26T06:33:34.209Z,21.40
2019-01-26T06:36:36.136Z,22.63
2019-01-26T06:39:38.168Z,22.20
2019-01-26T06:42:40.251Z,23.00
2019-01-26T06:45:42.291Z,22.40
2019-01-26T06:48:45.574Z,22.07
2019-01-26T06:51:53.171Z,24.47
2019-01-26T06:54:55.100Z,21.50
2019-01-26T06:57:57.098Z,22.67
2019-01-26T07:00:59.098Z,21.33
2019-01-26T07:04:01.449Z,23.40
2019-01-26T07:07:08.259Z,22.57
2019-01-26T07:10:10.293Z,23.63
2019-01-26T07:13:12.253Z,21.70
2019-01-26T07:16:16.087Z,23.40
2019-01-26T07:19:18.027Z,23.00
2019-01-26T07:22:20.020Z,22.60
2019-01-26T07:25:21.975Z,25.07
2019-01-26T07:28:24.034Z,26.07
2019-01-26T07:31:26.041Z,26.27
2019-01-26T07:34:28.250Z,26.13
2019-01-26T07:37:30.200Z,27.33
2019-01-26T07:40:32.203Z,27.73
2019-01-26T07:43:34.171Z,30.37
2019-01-26T07:46:36.522Z,30.53
2019-01-26T07:49:38.451Z,29.80
2019-01-26T07:52:40.411Z,30.30
2019-01-26T07:55:42.415Z,32.43
2019-01-26T07:58:44.429Z,30.53
2019-01-26T08:01:46.425Z,28.53
2019-01-26T08:04:48.501Z,27.43
2019-01-26T08:07:50.793Z,24.70
2019-01-26T08:10:52.759Z,24.10
2019-01-26T08:13:54.729Z,26.33
2019-01-26T08:16:56.726Z,27.10
2019-01-26T08:19:58.816Z,28.80
2019-01-26T08:23:00.912Z,27.00
2019-01-26T08:26:03.100Z,26.27
2019-01-26T08:29:05.231Z,29.00
2019-01-26T08:32:07.590Z,28.23
2019-01-26T08:35:09.818Z,29.63
2019-01-26T08:38:11.771Z,27.03
2019-01-26T08:41:13.734Z,27.93
2019-01-26T08:44:15.640Z,29.17
2019-01-26T08:47:17.644Z,26.20
2019-01-26T08:50:21.902Z,28.27
2019-01-26T08:53:23.859Z,27.17
2019-01-26T08:56:25.808Z,27.13
2019-01-26T08:59:27.810Z,25.70
2019-01-26T09:02:31.575Z,26.07
2019-01-26T09:05:37.972Z,27.63
2019-01-26T09:08:39.939Z,25.40
2019-01-26T09:11:41.945Z,25.10
2019-01-26T09:14:43.855Z,27.40
2019-01-26T09:17:45.810Z,26.37
2019-01-26T09:20:47.735Z,25.10
2019-01-26T09:23:49.841Z,24.80
2019-01-26T09:26:51.811Z,25.40
2019-01-26T09:29:53.961Z,24.67
2019-01-26T09:32:55.855Z,23.60
2019-01-26T09:35:58.194Z,23.00
2019-01-26T09:39:00.117Z,26.03
2019-01-26T09:42:07.239Z,25.17
2019-01-26T09:45:12.963Z,25.40
2019-01-26T09:48:14.972Z,26.30
2019-01-26T09:51:18.409Z,25.10
2019-01-26T09:54:20.445Z,22.80
2019-01-26T09:57:22.382Z,24.60
2019-01-26T10:00:27.886Z,19.97
2019-01-26T10:03:29.847Z,22.03
2019-01-26T10:06:31.929Z,23.67
2019-01-26T10:09:40.360Z,25.80
2019-01-26T10:12:42.508Z,24.03
2019-01-26T10:15:44.435Z,25.67
2019-01-26T10:18:53.351Z,24.23
2019-01-26T10:21:50.320Z,24.33
2019-01-26T10:24:52.482Z,22.20
2019-01-26T10:27:54.636Z,23.87
2019-01-26T10:30:58.160Z,25.23
2019-01-26T10:34:00.203Z,23.37
2019-01-26T10:37:02.657Z,24.40
2019-01-26T10:40:10.037Z,24.67
2019-01-26T10:43:13.891Z,23.57
2019-01-26T10:46:15.859Z,24.90
2019-01-26T10:49:17.918Z,24.57
2019-01-26T10:52:19.920Z,23.30
2019-01-26T10:55:22.042Z,22.73
2019-01-26T10:58:24.093Z,23.33
2019-01-26T11:01:26.131Z,20.43
2019-01-26T11:04:28.118Z,19.67
2019-01-26T11:07:30.305Z,20.87
2019-01-26T11:10:32.807Z,20.47
2019-01-26T11:13:36.204Z,23.70
2019-01-26T11:16:39.150Z,22.63
2019-01-26T11:19:41.167Z,22.60
2019-01-26T11:22:43.132Z,22.57
2019-01-26T11:25:45.078Z,23.07
2019-01-26T11:28:47.125Z,22.90
2019-01-26T11:31:49.234Z,25.67
2019-01-26T11:34:51.209Z,23.30
2019-01-26T11:37:53.351Z,26.53
2019-01-26T11:40:55.412Z,23.97
2019-01-26T11:43:57.412Z,24.77
2019-01-26T11:46:59.381Z,26.27
2019-01-26T11:50:02.922Z,27.23
2019-01-26T11:53:04.898Z,26.70
2019-01-26T11:56:11.585Z,26.57
2019-01-26T11:59:13.728Z,25.37
2019-01-26T12:02:17.588Z,26.53
2019-01-26T12:05:21.324Z,26.37
2019-01-26T12:08:24.288Z,29.50
2019-01-26T12:11:27.352Z,27.00
2019-01-26T12:14:29.494Z,24.53
2019-01-26T12:17:31.417Z,26.37
2019-01-26T12:20:33.446Z,25.03
2019-01-26T12:23:35.409Z,24.20
2019-01-26T12:26:37.597Z,23.70
2019-01-26T12:29:40.879Z,24.50
2019-01-26T12:32:43.096Z,22.53
2019-01-26T12:35:45.036Z,22.47
2019-01-26T12:38:47.073Z,22.40
2019-01-26T12:41:49.024Z,23.30
2019-01-26T12:44:50.998Z,24.70
2019-01-26T12:47:52.973Z,29.33
2019-01-26T12:50:55.053Z,27.20
2019-01-26T12:53:57.896Z,27.83
2019-01-26T12:56:59.929Z,27.93
2019-01-26T13:00:02.041Z,27.67
2019-01-26T13:03:04.167Z,28.77
2019-01-26T13:06:06.406Z,21.80
2019-01-26T13:09:08.666Z,22.80
2019-01-26T13:12:11.058Z,22.73
2019-01-26T13:15:15.327Z,24.60
2019-01-26T13:18:17.533Z,22.13
2019-01-26T13:21:21.034Z,23.07
2019-01-26T13:24:23.224Z,22.50
2019-01-26T13:27:26.521Z,22.60
2019-01-26T13:30:29.698Z,24.47
2019-01-26T13:33:31.910Z,24.30
2019-01-26T13:36:34.221Z,25.07
2019-01-26T13:39:36.400Z,24.20
2019-01-26T13:42:38.586Z,23.37
2019-01-26T13:45:43.494Z,26.90
2019-01-26T13:48:45.461Z,24.80
2019-01-26T13:51:48.169Z,24.63
2019-01-26T13:54:50.138Z,25.73
2019-01-26T13:57:52.207Z,25.13
2019-01-26T14:00:54.193Z,25.13
2019-01-26T14:03:56.221Z,25.27
2019-01-26T14:06:58.137Z,25.03
2019-01-26T14:10:00.200Z,24.73
2019-01-26T14:13:02.262Z,25.97
2019-01-26T14:16:04.389Z,26.70
2019-01-26T14:19:06.332Z,25.17
2019-01-26T14:22:08.511Z,23.70
2019-01-26T14:25:12.407Z,25.83
2019-01-26T14:28:14.527Z,26.47
2019-01-26T14:31:16.591Z,27.27
2019-01-26T14:34:18.766Z,26.10
2019-01-26T14:37:20.691Z,25.23
2019-01-26T14:40:22.686Z,26.00
2019-01-26T14:43:24.650Z,26.43
2019-01-26T14:46:26.663Z,28.57
2019-01-26T14:49:28.638Z,28.20
2019-01-26T14:52:30.805Z,29.37
2019-01-26T14:55:32.727Z,29.00
2019-01-26T14:58:34.812Z,29.37
2019-01-26T15:01:36.779Z,28.83
2019-01-26T15:04:38.774Z,30.60
2019-01-26T15:07:40.754Z,31.03
2019-01-26T15:10:42.728Z,29.13
2019-01-26T15:13:44.668Z,28.93
2019-01-26T15:16:46.600Z,30.57
2019-01-26T15:19:48.529Z,28.30
2019-01-26T15:22:50.485Z,27.23
2019-01-26T15:25:52.403Z,26.87
2019-01-26T15:28:54.516Z,30.10
2019-01-26T15:31:56.608Z,30.03
2019-01-26T15:34:58.684Z,32.30
2019-01-26T15:38:00.658Z,31.83
2019-01-26T15:41:02.660Z,35.13
2019-01-26T15:44:04.575Z,34.27
2019-01-26T15:47:06.531Z,33.33
2019-01-26T15:50:13.172Z,31.00
2019-01-26T15:53:15.611Z,32.97
2019-01-26T15:56:17.564Z,34.47
2019-01-26T15:59:19.512Z,32.90
2019-01-26T16:02:21.675Z,32.40
2019-01-26T16:05:23.685Z,31.33
2019-01-26T16:08:25.646Z,33.07
2019-01-26T16:11:27.671Z,34.40
2019-01-26T16:14:29.622Z,32.93
2019-01-26T16:17:31.617Z,34.50
2019-01-26T16:20:33.604Z,35.43
2019-01-26T16:23:35.592Z,36.03
2019-01-26T16:26:37.525Z,35.70
2019-01-26T16:29:39.564Z,35.70
2019-01-26T16:32:41.595Z,36.73
2019-01-26T16:35:43.695Z,37.50
2019-01-26T16:38:45.796Z,41.00
2019-01-26T16:41:49.412Z,40.20
2019-01-26T16:44:51.372Z,45.83
2019-01-26T16:47:53.438Z,45.77
2019-01-26T16:50:55.395Z,55.70
2019-01-26T16:53:57.801Z,54.77
2019-01-26T16:56:59.694Z,48.97
2019-01-26T17:00:01.713Z,45.80
2019-01-26T17:03:04.384Z,46.47
2019-01-26T17:06:06.524Z,44.37
2019-01-26T17:09:08.573Z,41.70
2019-01-26T17:12:10.610Z,39.70
2019-01-26T17:15:12.764Z,35.93
2019-01-26T17:18:16.909Z,37.77
2019-01-26T17:21:18.855Z,37.03
2019-01-26T17:24:21.591Z,34.70
2019-01-26T17:27:23.531Z,36.67
2019-01-26T17:30:38.292Z,36.67
2019-01-26T17:33:42.050Z,33.73
2019-01-26T17:36:44.179Z,35.17
2019-01-26T17:39:47.490Z,33.37
2019-01-26T17:42:51.611Z,33.90
2019-01-26T17:45:53.541Z,35.77
2019-01-26T17:48:55.568Z,36.20
2019-01-26T17:51:58.737Z,35.50
2019-01-26T17:55:01.071Z,33.73
2019-01-26T17:58:03.684Z,36.80
2019-01-26T18:01:06.656Z,35.80
2019-01-26T18:04:08.605Z,36.43
2019-01-26T18:07:10.656Z,32.77
2019-01-26T18:10:19.418Z,33.20
2019-01-26T18:13:21.453Z,34.93
2019-01-26T18:16:23.731Z,36.97
2019-01-26T18:19:27.331Z,41.43
2019-01-26T18:22:29.295Z,42.97
2019-01-26T18:25:33.162Z,42.93
2019-01-26T18:28:35.948Z,51.80
2019-01-26T18:31:39.210Z,51.73
2019-01-26T18:34:42.771Z,50.50
2019-01-26T18:37:44.871Z,48.20
2019-01-26T18:40:46.903Z,46.30
2019-01-26T18:43:52.603Z,41.93
2019-01-26T18:46:54.561Z,42.13
2019-01-26T18:49:56.606Z,43.17
2019-01-26T18:52:58.682Z,44.70
2019-01-26T18:56:00.716Z,41.13
2019-01-26T18:59:05.293Z,39.00
2019-01-26T19:02:09.848Z,37.87
2019-01-26T19:05:15.360Z,33.27
2019-01-26T19:08:19.469Z,33.43
2019-01-26T19:11:21.844Z,31.50
2019-01-26T19:14:23.877Z,37.47
2019-01-26T19:17:25.841Z,33.90
2019-01-26T19:20:27.867Z,34.90
2019-01-26T19:23:30.187Z,33.63
2019-01-26T19:26:34.444Z,31.80
2019-01-26T19:29:36.456Z,31.70
2019-01-26T19:32:41.714Z,31.27
2019-01-26T19:35:43.695Z,30.70
2019-01-26T19:38:47.335Z,31.10
2019-01-26T19:41:52.374Z,32.87
2019-01-26T19:44:54.473Z,32.40
2019-01-26T19:47:57.957Z,31.10
2019-01-26T19:51:00.311Z,30.83
2019-01-26T19:54:03.969Z,29.63
2019-01-26T19:57:07.175Z,27.23
2019-01-26T20:00:11.490Z,27.73
2019-01-26T20:03:14.842Z,27.33
2019-01-26T20:06:18.011Z,28.50
2019-01-26T20:09:20.519Z,25.37
2019-01-26T20:12:23.519Z,27.37
2019-01-26T20:15:27.162Z,28.37
2019-01-26T20:18:29.438Z,30.53
2019-01-26T20:21:31.793Z,30.77
2019-01-26T20:24:34.503Z,32.87
2019-01-26T20:27:37.026Z,30.27
2019-01-26T20:30:43.283Z,32.40
2019-01-26T20:33:54.015Z,32.40
2019-01-26T20:36:56.000Z,30.53
2019-01-26T20:39:57.972Z,33.03
2019-01-26T20:42:59.950Z,31.60
2019-01-26T20:46:01.978Z,29.07
2019-01-26T20:49:04.038Z,28.07
2019-01-26T20:52:06.100Z,28.80
2019-01-26T20:55:10.514Z,27.93
2019-01-26T20:58:12.469Z,27.80
2019-01-26T21:01:16.613Z,27.33
2019-01-26T21:04:23.864Z,27.57
2019-01-26T21:07:25.785Z,26.30
2019-01-26T21:10:31.991Z,26.90
2019-01-26T21:13:34.073Z,26.40
2019-01-26T21:16:38.204Z,26.47
2019-01-26T21:19:40.494Z,25.33
2019-01-26T21:22:42.497Z,25.73
2019-01-26T21:25:46.202Z,23.17
2019-01-26T21:28:50.272Z,26.63
2019-01-26T21:31:54.733Z,24.43
2019-01-26T21:34:58.507Z,24.83
2019-01-26T21:38:00.871Z,25.20
2019-01-26T21:41:05.873Z,25.90
2019-01-26T21:44:07.831Z,27.37
2019-01-26T21:47:09.760Z,31.53
2019-01-26T21:50:15.152Z,32.00
2019-01-26T21:53:17.102Z,29.87
2019-01-26T21:56:21.095Z,28.00
2019-01-26T21:59:22.970Z,27.47
2019-01-26T22:02:26.509Z,28.87
2019-01-26T22:05:28.347Z,28.27
2019-01-26T22:08:30.359Z,31.63
2019-01-26T22:11:32.723Z,28.60
2019-01-26T22:14:35.663Z,30.03
2019-01-26T22:17:37.640Z,30.30
2019-01-26T22:20:39.521Z,26.73
2019-01-26T22:23:43.253Z,27.00
2019-01-26T22:26:45.201Z,28.73
2019-01-26T22:29:47.102Z,30.37
2019-01-26T22:32:49.231Z,39.17
2019-01-26T22:35:51.183Z,42.83
2019-01-26T22:38:53.183Z,40.87
2019-01-26T22:41:55.089Z,35.50
2019-01-26T22:44:57.152Z,33.10
2019-01-26T22:47:59.060Z,32.53
2019-01-26T22:51:01.005Z,33.63
2019-01-26T22:54:03.945Z,31.53
2019-01-26T22:57:05.828Z,32.23
2019-01-26T23:00:27.318Z,32.13
2019-01-26T23:03:37.399Z,31.43
2019-01-26T23:06:42.994Z,32.03
2019-01-26T23:09:48.600Z,31.70
2019-01-26T23:12:55.098Z,35.57
2019-01-26T23:16:13.174Z,37.43
2019-01-26T23:19:33.977Z,36.10
2019-01-26T23:23:05.658Z,32.27
2019-01-26T23:26:11.185Z,32.13
2019-01-26T23:29:19.674Z,33.70
2019-01-26T23:32:21.523Z,31.40
2019-01-26T23:35:23.413Z,33.63
2019-01-26T23:38:25.501Z,34.20
2019-01-26T23:41:27.394Z,35.07
2019-01-26T23:44:29.353Z,33.97
2019-01-26T23:47:31.381Z,32.57
2019-01-26T23:50:33.304Z,31.47
2019-01-26T23:53:35.421Z,31.70
2019-01-26T23:56:37.320Z,30.83
2019-01-26T23:59:39.243Z,32.17
